BEL7JV EBBR-LEVC
Flight info
| Callsign | BEL7JV |
|---|---|
| Flight time | N/A |
| Altitude | 37000 |
| Route | CIV N872 LESDO DCT KOVIN DCT DUCRA DCT RESMI DCT DEKOD DCT DISAK DCT DIRMO DCT GUERE DCT EVPOK DCT AGN DCT ANETO DCT POSSY DCT ROCME DCT SEROX DCT CASPE DCT MLA DCT CRETA DCT RIMES DCT SAURA |
| Aircraft | A320/M-SDE3FGHIRWY/LB1 |
Departure
| Time | 2026-05-07 19:48 |
|---|---|
| Airport | Brussels Airport (EBBR) |
Arrival
| Time | N/A |
|---|---|
| Airport | Valencia Airport (LEVC) |
| Time | Latitude | Longitude | Altitude | Speed | Heading |
|---|---|---|---|---|---|
| 2026-05-07 19:11 | 50.90404 | 4.48597 | 118 ft | 0 kts | 155° |
| 2026-05-07 19:37 | 50.90407 | 4.48595 | 121 ft | 3 kts | 155° |
| 2026-05-07 19:37 | 50.90431 | 4.48578 | 120 ft | 4 kts | 153° |
| 2026-05-07 19:37 | 50.90454 | 4.48557 | 121 ft | 4 kts | 147° |
| 2026-05-07 19:38 | 50.90475 | 4.48531 | 119 ft | 4 kts | 122° |
| 2026-05-07 19:38 | 50.90480 | 4.48504 | 118 ft | 1 kts | 65° |
| 2026-05-07 19:38 | 50.90480 | 4.48503 | 118 ft | 0 kts | 65° |
| 2026-05-07 19:42 | 50.90480 | 4.48504 | 118 ft | 2 kts | 65° |
| 2026-05-07 19:42 | 50.90498 | 4.48566 | 117 ft | 7 kts | 65° |
| 2026-05-07 19:42 | 50.90523 | 4.48654 | 119 ft | 9 kts | 65° |
| 2026-05-07 19:43 | 50.90556 | 4.48768 | 117 ft | 16 kts | 65° |
| 2026-05-07 19:43 | 50.90606 | 4.48941 | 117 ft | 16 kts | 65° |
| 2026-05-07 19:43 | 50.90645 | 4.49072 | 120 ft | 12 kts | 60° |
| 2026-05-07 19:43 | 50.90719 | 4.49103 | 119 ft | 13 kts | 22° |
| 2026-05-07 19:44 | 50.90768 | 4.49229 | 122 ft | 14 kts | 65° |
| 2026-05-07 19:44 | 50.90819 | 4.49406 | 127 ft | 20 kts | 66° |
| 2026-05-07 19:44 | 50.90874 | 4.49597 | 122 ft | 18 kts | 65° |
| 2026-05-07 19:44 | 50.90918 | 4.49749 | 118 ft | 11 kts | 66° |
| 2026-05-07 19:45 | 50.90934 | 4.49796 | 119 ft | 0 kts | 47° |
| 2026-05-07 19:46 | 50.90937 | 4.49801 | 124 ft | 5 kts | 47° |
| 2026-05-07 19:47 | 50.91021 | 4.49899 | 119 ft | 19 kts | 26° |
| 2026-05-07 19:47 | 50.91121 | 4.49932 | 120 ft | 7 kts | 338° |
| 2026-05-07 19:47 | 50.91137 | 4.49879 | 120 ft | 5 kts | 259° |
| 2026-05-07 19:47 | 50.91100 | 4.49752 | 119 ft | 35 kts | 245° |
| 2026-05-07 19:48 | 50.90887 | 4.49012 | 117 ft | 108 kts | 245° |
| 2026-05-07 19:48 | 50.90491 | 4.47640 | 125 ft | 162 kts | 246° |
| 2026-05-07 19:48 | 50.90018 | 4.45976 | 739 ft | 166 kts | 249° |
| 2026-05-07 19:48 | 50.89886 | 4.44135 | 1409 ft | 173 kts | 288° |
| 2026-05-07 19:49 | 50.90376 | 4.42417 | 2171 ft | 171 kts | 290° |
| 2026-05-07 19:49 | 50.90576 | 4.40563 | 2870 ft | 172 kts | 275° |
| 2026-05-07 19:49 | 50.90656 | 4.38642 | 3513 ft | 176 kts | 275° |
| 2026-05-07 19:49 | 50.90741 | 4.36618 | 3848 ft | 198 kts | 275° |
| 2026-05-07 19:50 | 50.90839 | 4.34301 | 4210 ft | 223 kts | 275° |
| 2026-05-07 19:50 | 50.90726 | 4.31727 | 4629 ft | 248 kts | 251° |
| 2026-05-07 19:50 | 50.89733 | 4.29374 | 5182 ft | 268 kts | 222° |
| 2026-05-07 19:50 | 50.88326 | 4.27381 | 6063 ft | 274 kts | 221° |
| 2026-05-07 19:51 | 50.86893 | 4.25344 | 6721 ft | 279 kts | 221° |
| 2026-05-07 19:51 | 50.85450 | 4.23285 | 6964 ft | 279 kts | 222° |
| 2026-05-07 19:51 | 50.84012 | 4.21226 | 7062 ft | 279 kts | 222° |
| 2026-05-07 19:51 | 50.82578 | 4.19169 | 7079 ft | 278 kts | 222° |
| 2026-05-07 19:52 | 50.81143 | 4.17113 | 7108 ft | 280 kts | 222° |
| 2026-05-07 19:52 | 50.79666 | 4.14998 | 7971 ft | 281 kts | 222° |
| 2026-05-07 19:52 | 50.78255 | 4.12978 | 8871 ft | 284 kts | 222° |
| 2026-05-07 19:52 | 50.76778 | 4.10865 | 9777 ft | 288 kts | 222° |
| 2026-05-07 19:53 | 50.75270 | 4.08706 | 10405 ft | 303 kts | 221° |
| 2026-05-07 19:53 | 50.73651 | 4.06392 | 10820 ft | 322 kts | 221° |
| 2026-05-07 19:53 | 50.71967 | 4.03990 | 11584 ft | 328 kts | 221° |
| 2026-05-07 19:53 | 50.70267 | 4.01567 | 12447 ft | 330 kts | 222° |
| 2026-05-07 19:54 | 50.68556 | 3.99132 | 13281 ft | 332 kts | 222° |
| 2026-05-07 19:54 | 50.66832 | 3.96675 | 14057 ft | 335 kts | 223° |
| 2026-05-07 19:54 | 50.65094 | 3.94205 | 14792 ft | 339 kts | 223° |
| 2026-05-07 19:54 | 50.63327 | 3.91705 | 15499 ft | 342 kts | 223° |
| 2026-05-07 19:55 | 50.61552 | 3.89192 | 16204 ft | 345 kts | 223° |
| 2026-05-07 19:55 | 50.59759 | 3.86650 | 16885 ft | 348 kts | 223° |
| 2026-05-07 19:55 | 50.57880 | 3.84123 | 17532 ft | 353 kts | 217° |
| 2026-05-07 19:55 | 50.55788 | 3.82179 | 18170 ft | 357 kts | 206° |
| 2026-05-07 19:56 | 50.53472 | 3.80596 | 18804 ft | 360 kts | 204° |
| 2026-05-07 19:56 | 50.51196 | 3.79045 | 19408 ft | 363 kts | 205° |
| 2026-05-07 19:56 | 50.48840 | 3.77438 | 20021 ft | 366 kts | 205° |
| 2026-05-07 19:56 | 50.46492 | 3.75836 | 20612 ft | 369 kts | 205° |
| 2026-05-07 19:57 | 50.44126 | 3.74224 | 21178 ft | 372 kts | 205° |
| 2026-05-07 19:57 | 50.41737 | 3.72599 | 21724 ft | 375 kts | 205° |
| 2026-05-07 19:57 | 50.39331 | 3.70966 | 22254 ft | 378 kts | 205° |
| 2026-05-07 19:57 | 50.36909 | 3.69322 | 22767 ft | 381 kts | 205° |
| 2026-05-07 19:58 | 50.34466 | 3.67666 | 23257 ft | 384 kts | 205° |
| 2026-05-07 19:58 | 50.32010 | 3.66003 | 23769 ft | 386 kts | 205° |
| 2026-05-07 19:58 | 50.29530 | 3.64327 | 24245 ft | 389 kts | 205° |
| 2026-05-07 19:58 | 50.27032 | 3.62641 | 24703 ft | 392 kts | 205° |
| 2026-05-07 19:59 | 50.24519 | 3.60946 | 25161 ft | 395 kts | 205° |
| 2026-05-07 19:59 | 50.21992 | 3.59246 | 25609 ft | 397 kts | 205° |
| 2026-05-07 19:59 | 50.19449 | 3.57538 | 26042 ft | 399 kts | 205° |
| 2026-05-07 19:59 | 50.16895 | 3.55824 | 26478 ft | 401 kts | 205° |
| 2026-05-07 20:00 | 50.14321 | 3.54098 | 26890 ft | 404 kts | 205° |
| 2026-05-07 20:00 | 50.11737 | 3.52365 | 27299 ft | 406 kts | 205° |
| 2026-05-07 20:00 | 50.09134 | 3.50622 | 27691 ft | 408 kts | 205° |
| 2026-05-07 20:00 | 50.06554 | 3.48895 | 28076 ft | 410 kts | 205° |
| 2026-05-07 20:01 | 50.03896 | 3.47119 | 28461 ft | 412 kts | 205° |
| 2026-05-07 20:01 | 50.01251 | 3.45355 | 28832 ft | 414 kts | 205° |
| 2026-05-07 20:01 | 49.98600 | 3.43590 | 29192 ft | 416 kts | 205° |
| 2026-05-07 20:01 | 49.95929 | 3.41813 | 29541 ft | 418 kts | 205° |
| 2026-05-07 20:02 | 49.93248 | 3.40029 | 29889 ft | 420 kts | 205° |
| 2026-05-07 20:02 | 49.90565 | 3.38248 | 30228 ft | 422 kts | 205° |
| 2026-05-07 20:02 | 49.87847 | 3.36447 | 30550 ft | 424 kts | 205° |
| 2026-05-07 20:02 | 49.85177 | 3.34677 | 30840 ft | 427 kts | 205° |
| 2026-05-07 20:03 | 49.82387 | 3.32830 | 31143 ft | 428 kts | 205° |
| 2026-05-07 20:03 | 49.79671 | 3.31034 | 31434 ft | 430 kts | 205° |
| 2026-05-07 20:03 | 49.76889 | 3.29196 | 31710 ft | 432 kts | 205° |
| 2026-05-07 20:03 | 49.74129 | 3.27362 | 32085 ft | 431 kts | 207° |
| 2026-05-07 20:04 | 49.71454 | 3.25305 | 32478 ft | 429 kts | 209° |
| 2026-05-07 20:04 | 49.69702 | 3.23894 | 32719 ft | 428 kts | 210° |
| 2026-05-07 20:04 | 49.67076 | 3.21722 | 33108 ft | 427 kts | 211° |
| 2026-05-07 20:04 | 49.64470 | 3.19529 | 33483 ft | 426 kts | 211° |
| 2026-05-07 20:05 | 49.61869 | 3.17331 | 33852 ft | 425 kts | 211° |
| 2026-05-07 20:05 | 49.59269 | 3.15145 | 34235 ft | 424 kts | 211° |
| 2026-05-07 20:05 | 49.56682 | 3.12984 | 34596 ft | 423 kts | 211° |
| 2026-05-07 20:05 | 49.54086 | 3.10831 | 34918 ft | 423 kts | 210° |
| 2026-05-07 20:06 | 49.51491 | 3.08688 | 35218 ft | 423 kts | 210° |
| 2026-05-07 20:06 | 49.48894 | 3.06552 | 35518 ft | 423 kts | 210° |
| 2026-05-07 20:06 | 49.46299 | 3.04422 | 35812 ft | 423 kts | 210° |
| 2026-05-07 20:06 | 49.43705 | 3.02293 | 36095 ft | 423 kts | 210° |
| 2026-05-07 20:07 | 49.41109 | 3.00162 | 36359 ft | 423 kts | 210° |
| 2026-05-07 20:07 | 49.38514 | 2.98031 | 36612 ft | 423 kts | 210° |
| 2026-05-07 20:07 | 49.35915 | 2.95906 | 36862 ft | 423 kts | 210° |
| 2026-05-07 20:07 | 49.33323 | 2.93792 | 37035 ft | 420 kts | 210° |
| 2026-05-07 20:08 | 49.28227 | 2.89640 | 37053 ft | 412 kts | 210° |
| 2026-05-07 20:08 | 49.23174 | 2.85519 | 37057 ft | 411 kts | 210° |
| 2026-05-07 20:09 | 49.18122 | 2.81406 | 37053 ft | 411 kts | 210° |
| 2026-05-07 20:10 | 49.10549 | 2.75272 | 37055 ft | 410 kts | 210° |
| 2026-05-07 20:10 | 49.05497 | 2.71198 | 37055 ft | 411 kts | 210° |
| 2026-05-07 20:11 | 49.00448 | 2.67128 | 37062 ft | 410 kts | 210° |
| 2026-05-07 20:11 | 48.95396 | 2.63067 | 37059 ft | 410 kts | 210° |
| 2026-05-07 20:12 | 48.90349 | 2.59025 | 37058 ft | 410 kts | 210° |
| 2026-05-07 20:12 | 48.85298 | 2.54974 | 37061 ft | 410 kts | 210° |
| 2026-05-07 20:13 | 48.80255 | 2.50930 | 37065 ft | 410 kts | 210° |
| 2026-05-07 20:13 | 48.75178 | 2.46882 | 37065 ft | 410 kts | 210° |
| 2026-05-07 20:14 | 48.70129 | 2.42874 | 37062 ft | 409 kts | 210° |
| 2026-05-07 20:14 | 48.65082 | 2.38874 | 37064 ft | 409 kts | 210° |
| 2026-05-07 20:15 | 48.60073 | 2.34911 | 37066 ft | 409 kts | 210° |
| 2026-05-07 20:15 | 48.55033 | 2.30933 | 37068 ft | 408 kts | 210° |
| 2026-05-07 20:16 | 48.49998 | 2.26961 | 37067 ft | 408 kts | 210° |
| 2026-05-07 20:16 | 48.44967 | 2.23012 | 37064 ft | 408 kts | 210° |
| 2026-05-07 20:17 | 48.39935 | 2.19063 | 37063 ft | 407 kts | 210° |
| 2026-05-07 20:17 | 48.34905 | 2.15121 | 37066 ft | 407 kts | 210° |
| 2026-05-07 20:18 | 48.29729 | 2.11669 | 37065 ft | 410 kts | 197° |
| 2026-05-07 20:18 | 48.24026 | 2.10924 | 37059 ft | 417 kts | 177° |
| 2026-05-07 20:19 | 48.18258 | 2.12136 | 37052 ft | 418 kts | 175° |
| 2026-05-07 20:19 | 48.12489 | 2.13229 | 37047 ft | 416 kts | 181° |
| 2026-05-07 20:20 | 48.06710 | 2.13555 | 37041 ft | 416 kts | 181° |
| 2026-05-07 20:20 | 48.00928 | 2.13892 | 37044 ft | 416 kts | 181° |
| 2026-05-07 20:21 | 47.95138 | 2.14240 | 37046 ft | 417 kts | 181° |
| 2026-05-07 20:21 | 47.89351 | 2.14582 | 37048 ft | 416 kts | 181° |
| 2026-05-07 20:22 | 47.83562 | 2.14921 | 37050 ft | 416 kts | 181° |
| 2026-05-07 20:22 | 47.77773 | 2.15259 | 37051 ft | 416 kts | 181° |
| 2026-05-07 20:23 | 47.71987 | 2.15594 | 37052 ft | 416 kts | 181° |
| 2026-05-07 20:23 | 47.66204 | 2.15927 | 37051 ft | 416 kts | 181° |
| 2026-05-07 20:24 | 47.60410 | 2.16270 | 37049 ft | 416 kts | 181° |
| 2026-05-07 20:24 | 47.55481 | 2.16559 | 37052 ft | 416 kts | 181° |
| 2026-05-07 20:25 | 47.49698 | 2.16894 | 37045 ft | 416 kts | 181° |
| 2026-05-07 20:25 | 47.43916 | 2.17223 | 37043 ft | 416 kts | 181° |
| 2026-05-07 20:26 | 47.38135 | 2.17558 | 37044 ft | 416 kts | 181° |
| 2026-05-07 20:26 | 47.32355 | 2.17885 | 37047 ft | 415 kts | 181° |
| 2026-05-07 20:27 | 47.26582 | 2.18210 | 37037 ft | 415 kts | 181° |
| 2026-05-07 20:27 | 47.20805 | 2.18544 | 37035 ft | 415 kts | 181° |
| 2026-05-07 20:28 | 47.15036 | 2.18867 | 37033 ft | 415 kts | 181° |
| 2026-05-07 20:28 | 47.09262 | 2.19174 | 37035 ft | 414 kts | 184° |
| 2026-05-07 20:29 | 47.03547 | 2.18606 | 37031 ft | 411 kts | 188° |
| 2026-05-07 20:29 | 46.97840 | 2.17935 | 37031 ft | 411 kts | 188° |
| 2026-05-07 20:30 | 46.92140 | 2.17267 | 37038 ft | 411 kts | 188° |
| 2026-05-07 20:30 | 46.86430 | 2.16607 | 37030 ft | 411 kts | 187° |
| 2026-05-07 20:31 | 46.80730 | 2.15957 | 37032 ft | 411 kts | 188° |
| 2026-05-07 20:31 | 46.75034 | 2.15312 | 37033 ft | 411 kts | 187° |
| 2026-05-07 20:32 | 46.69340 | 2.14665 | 37030 ft | 410 kts | 187° |
| 2026-05-07 20:32 | 46.63649 | 2.14013 | 37033 ft | 410 kts | 188° |
| 2026-05-07 20:33 | 46.57968 | 2.13359 | 37038 ft | 410 kts | 188° |
| 2026-05-07 20:33 | 46.52282 | 2.12707 | 37038 ft | 409 kts | 188° |
| 2026-05-07 20:34 | 46.46605 | 2.12068 | 37034 ft | 409 kts | 187° |
| 2026-05-07 20:34 | 46.40930 | 2.11427 | 37033 ft | 409 kts | 188° |
| 2026-05-07 20:35 | 46.35259 | 2.10777 | 37028 ft | 408 kts | 188° |
| 2026-05-07 20:35 | 46.29593 | 2.10135 | 37026 ft | 408 kts | 187° |
| 2026-05-07 20:36 | 46.23925 | 2.09501 | 37024 ft | 408 kts | 187° |
| 2026-05-07 20:36 | 46.18453 | 2.07722 | 37022 ft | 402 kts | 205° |
| 2026-05-07 20:37 | 46.13707 | 2.03577 | 37021 ft | 398 kts | 217° |
| 2026-05-07 20:37 | 46.09174 | 1.98983 | 37019 ft | 399 kts | 216° |
| 2026-05-07 20:38 | 46.04625 | 1.94424 | 37016 ft | 398 kts | 216° |
| 2026-05-07 20:38 | 46.00103 | 1.89894 | 37013 ft | 399 kts | 216° |
| 2026-05-07 20:39 | 45.95548 | 1.85334 | 37011 ft | 399 kts | 216° |
| 2026-05-07 20:39 | 45.91000 | 1.80778 | 37011 ft | 398 kts | 216° |
| 2026-05-07 20:40 | 45.86453 | 1.76235 | 37008 ft | 398 kts | 216° |
| 2026-05-07 20:40 | 45.81892 | 1.71691 | 37006 ft | 398 kts | 216° |
| 2026-05-07 20:41 | 45.77340 | 1.67170 | 37005 ft | 398 kts | 216° |
| 2026-05-07 20:41 | 45.72791 | 1.62652 | 37003 ft | 398 kts | 216° |
| 2026-05-07 20:42 | 45.68245 | 1.58140 | 37002 ft | 398 kts | 216° |
| 2026-05-07 20:42 | 45.64463 | 1.54400 | 37004 ft | 398 kts | 216° |
| 2026-05-07 20:43 | 45.59909 | 1.49908 | 37007 ft | 397 kts | 216° |
| 2026-05-07 20:43 | 45.55364 | 1.45425 | 37008 ft | 397 kts | 216° |
| 2026-05-07 20:44 | 45.50815 | 1.40957 | 37008 ft | 397 kts | 216° |
| 2026-05-07 20:44 | 45.45955 | 1.37251 | 37002 ft | 400 kts | 200° |
| 2026-05-07 20:45 | 45.40525 | 1.35381 | 36997 ft | 401 kts | 195° |
| 2026-05-07 20:45 | 45.35082 | 1.33618 | 36997 ft | 401 kts | 195° |
| 2026-05-07 20:46 | 45.29643 | 1.31847 | 36997 ft | 401 kts | 195° |
| 2026-05-07 20:46 | 45.24247 | 1.30097 | 36999 ft | 401 kts | 195° |
| 2026-05-07 20:47 | 45.18816 | 1.28338 | 36998 ft | 400 kts | 195° |
| 2026-05-07 20:47 | 45.13381 | 1.26586 | 36993 ft | 400 kts | 195° |
| 2026-05-07 20:48 | 45.07961 | 1.24842 | 36988 ft | 399 kts | 195° |
| 2026-05-07 20:48 | 45.02542 | 1.23097 | 36986 ft | 399 kts | 195° |
| 2026-05-07 20:49 | 44.97125 | 1.21354 | 36987 ft | 399 kts | 195° |
| 2026-05-07 20:49 | 44.91699 | 1.19624 | 36989 ft | 399 kts | 195° |
| 2026-05-07 20:50 | 44.86286 | 1.17890 | 36988 ft | 399 kts | 195° |
| 2026-05-07 20:50 | 44.80872 | 1.16157 | 36987 ft | 399 kts | 195° |
| 2026-05-07 20:51 | 44.75468 | 1.14438 | 36985 ft | 398 kts | 195° |
| 2026-05-07 20:51 | 44.70060 | 1.12714 | 36986 ft | 398 kts | 195° |
| 2026-05-07 20:52 | 44.64650 | 1.11001 | 36988 ft | 399 kts | 195° |
| 2026-05-07 20:52 | 44.59239 | 1.09291 | 36989 ft | 398 kts | 195° |
| 2026-05-07 20:53 | 44.53831 | 1.07588 | 36992 ft | 398 kts | 195° |
| 2026-05-07 20:53 | 44.48434 | 1.05883 | 36992 ft | 397 kts | 195° |
| 2026-05-07 20:54 | 44.43040 | 1.04178 | 36983 ft | 397 kts | 195° |
| 2026-05-07 20:54 | 44.37644 | 1.02488 | 36982 ft | 397 kts | 195° |
| 2026-05-07 20:55 | 44.32259 | 1.00805 | 36982 ft | 397 kts | 195° |
| 2026-05-07 20:55 | 44.26869 | 0.99119 | 36981 ft | 397 kts | 195° |
| 2026-05-07 20:56 | 44.21479 | 0.97433 | 36980 ft | 397 kts | 195° |
| 2026-05-07 20:56 | 44.16089 | 0.95746 | 36978 ft | 397 kts | 195° |
| 2026-05-07 20:57 | 44.10694 | 0.94060 | 36978 ft | 397 kts | 195° |
| 2026-05-07 20:57 | 44.05299 | 0.92386 | 36981 ft | 397 kts | 195° |
| 2026-05-07 20:58 | 43.99904 | 0.90720 | 36983 ft | 397 kts | 195° |
| 2026-05-07 20:58 | 43.94508 | 0.89056 | 36984 ft | 397 kts | 195° |
| 2026-05-07 20:59 | 43.89119 | 0.87387 | 36989 ft | 396 kts | 195° |
| 2026-05-07 20:59 | 43.83714 | 0.85834 | 36990 ft | 396 kts | 194° |
| 2026-05-07 21:00 | 43.78295 | 0.84428 | 36988 ft | 396 kts | 193° |
| 2026-05-07 21:00 | 43.72872 | 0.83021 | 36986 ft | 396 kts | 193° |
| 2026-05-07 21:01 | 43.67467 | 0.81586 | 36984 ft | 396 kts | 194° |
| 2026-05-07 21:01 | 43.62059 | 0.80147 | 36981 ft | 396 kts | 194° |
| 2026-05-07 21:02 | 43.56685 | 0.78717 | 36981 ft | 396 kts | 193° |
| 2026-05-07 21:02 | 43.51282 | 0.77290 | 36977 ft | 395 kts | 193° |
| 2026-05-07 21:03 | 43.45874 | 0.75855 | 36976 ft | 395 kts | 194° |
| 2026-05-07 21:03 | 43.40469 | 0.74420 | 36974 ft | 395 kts | 194° |
| 2026-05-07 21:04 | 43.35071 | 0.72989 | 36976 ft | 395 kts | 194° |
| 2026-05-07 21:04 | 43.29672 | 0.71570 | 36979 ft | 395 kts | 193° |
| 2026-05-07 21:05 | 43.24275 | 0.70157 | 36974 ft | 395 kts | 194° |
| 2026-05-07 21:05 | 43.18878 | 0.68733 | 36975 ft | 395 kts | 194° |
| 2026-05-07 21:06 | 43.13479 | 0.67320 | 36978 ft | 395 kts | 193° |
| 2026-05-07 21:06 | 43.08085 | 0.65910 | 36981 ft | 394 kts | 194° |
| 2026-05-07 21:07 | 43.02691 | 0.64502 | 36983 ft | 394 kts | 193° |
| 2026-05-07 21:07 | 42.97359 | 0.63114 | 36982 ft | 394 kts | 193° |
| 2026-05-07 21:08 | 42.91925 | 0.61707 | 36978 ft | 393 kts | 194° |
| 2026-05-07 21:08 | 42.86538 | 0.60308 | 36980 ft | 394 kts | 193° |
| 2026-05-07 21:09 | 42.81151 | 0.58914 | 36980 ft | 393 kts | 193° |
| 2026-05-07 21:09 | 42.75778 | 0.57525 | 36984 ft | 393 kts | 194° |
| 2026-05-07 21:10 | 42.70416 | 0.56099 | 36982 ft | 391 kts | 197° |
| 2026-05-07 21:10 | 42.65405 | 0.53352 | 36986 ft | 388 kts | 207° |
| 2026-05-07 21:11 | 42.60557 | 0.50229 | 36987 ft | 388 kts | 207° |
| 2026-05-07 21:11 | 42.53217 | 0.45530 | 36984 ft | 388 kts | 207° |
| 2026-05-07 21:12 | 42.48332 | 0.42419 | 36985 ft | 388 kts | 207° |
| 2026-05-07 21:12 | 42.43467 | 0.39326 | 36982 ft | 389 kts | 207° |
| 2026-05-07 21:13 | 42.38519 | 0.36173 | 36989 ft | 395 kts | 207° |
| 2026-05-07 21:13 | 42.33497 | 0.32980 | 36999 ft | 401 kts | 207° |
| 2026-05-07 21:14 | 42.28434 | 0.29784 | 36999 ft | 403 kts | 207° |
| 2026-05-07 21:14 | 42.23348 | 0.26577 | 36999 ft | 404 kts | 207° |
| 2026-05-07 21:15 | 42.18259 | 0.23366 | 36998 ft | 403 kts | 207° |
| 2026-05-07 21:15 | 42.13176 | 0.20159 | 36996 ft | 403 kts | 207° |
| 2026-05-07 21:16 | 42.08045 | 0.17097 | 36993 ft | 406 kts | 200° |
| 2026-05-07 21:16 | 42.02468 | 0.16026 | 36990 ft | 414 kts | 181° |
| 2026-05-07 21:17 | 41.96713 | 0.16539 | 36986 ft | 414 kts | 180° |
| 2026-05-07 21:17 | 41.90956 | 0.17047 | 36985 ft | 415 kts | 180° |
| 2026-05-07 21:18 | 41.85185 | 0.17544 | 36986 ft | 415 kts | 180° |
| 2026-05-07 21:18 | 41.79420 | 0.18036 | 36988 ft | 415 kts | 180° |
| 2026-05-07 21:19 | 41.73661 | 0.18535 | 36988 ft | 415 kts | 180° |
| 2026-05-07 21:19 | 41.67893 | 0.19030 | 36991 ft | 415 kts | 180° |
| 2026-05-07 21:20 | 41.62121 | 0.19528 | 36994 ft | 415 kts | 180° |
| 2026-05-07 21:20 | 41.56361 | 0.20016 | 36995 ft | 415 kts | 180° |
| 2026-05-07 21:21 | 41.50602 | 0.20503 | 36994 ft | 415 kts | 180° |
| 2026-05-07 21:21 | 41.44829 | 0.20996 | 36995 ft | 415 kts | 180° |
| 2026-05-07 21:22 | 41.39060 | 0.21493 | 36994 ft | 415 kts | 180° |
| 2026-05-07 21:22 | 41.33317 | 0.21518 | 36994 ft | 409 kts | 192° |
| 2026-05-07 21:23 | 41.27736 | 0.20163 | 36994 ft | 408 kts | 194° |
| 2026-05-07 21:23 | 41.22152 | 0.18781 | 36994 ft | 408 kts | 194° |
| 2026-05-07 21:24 | 41.17505 | 0.17641 | 36997 ft | 408 kts | 195° |
| 2026-05-07 21:24 | 41.14753 | 0.16965 | 36874 ft | 410 kts | 195° |
| 2026-05-07 21:24 | 41.11934 | 0.16120 | 36619 ft | 406 kts | 201° |
| 2026-05-07 21:25 | 41.09242 | 0.15030 | 36329 ft | 402 kts | 201° |
| 2026-05-07 21:25 | 41.06573 | 0.13951 | 35814 ft | 400 kts | 201° |
| 2026-05-07 21:25 | 41.03923 | 0.12879 | 35309 ft | 397 kts | 201° |
| 2026-05-07 21:25 | 41.01283 | 0.11810 | 34789 ft | 396 kts | 201° |
| 2026-05-07 21:26 | 40.98651 | 0.10747 | 34278 ft | 394 kts | 201° |
| 2026-05-07 21:26 | 40.96039 | 0.09695 | 33760 ft | 391 kts | 201° |
| 2026-05-07 21:26 | 40.93447 | 0.08654 | 33275 ft | 389 kts | 201° |
| 2026-05-07 21:26 | 40.90866 | 0.07621 | 32776 ft | 386 kts | 201° |
| 2026-05-07 21:27 | 40.88301 | 0.06598 | 32278 ft | 383 kts | 201° |
| 2026-05-07 21:27 | 40.85759 | 0.05584 | 31778 ft | 380 kts | 200° |
| 2026-05-07 21:27 | 40.83238 | 0.04574 | 31282 ft | 377 kts | 201° |
| 2026-05-07 21:27 | 40.80735 | 0.03565 | 30815 ft | 374 kts | 200° |
| 2026-05-07 21:28 | 40.78251 | 0.02567 | 30336 ft | 371 kts | 200° |
| 2026-05-07 21:28 | 40.75793 | 0.01583 | 29882 ft | 368 kts | 200° |
| 2026-05-07 21:28 | 40.73356 | 0.00608 | 29435 ft | 364 kts | 200° |
| 2026-05-07 21:28 | 40.70942 | -0.00358 | 29002 ft | 361 kts | 200° |
| 2026-05-07 21:29 | 40.68551 | -0.01313 | 28565 ft | 358 kts | 201° |
| 2026-05-07 21:29 | 40.66178 | -0.02256 | 28135 ft | 354 kts | 204° |
| 2026-05-07 21:29 | 40.63827 | -0.03189 | 27712 ft | 351 kts | 203° |
| 2026-05-07 21:29 | 40.61500 | -0.04114 | 27294 ft | 348 kts | 203° |
| 2026-05-07 21:30 | 40.59184 | -0.05033 | 26878 ft | 346 kts | 202° |
| 2026-05-07 21:30 | 40.56925 | -0.05931 | 26444 ft | 343 kts | 202° |
| 2026-05-07 21:30 | 40.54645 | -0.06838 | 26003 ft | 341 kts | 202° |
| 2026-05-07 21:30 | 40.52402 | -0.07728 | 25571 ft | 340 kts | 201° |
| 2026-05-07 21:31 | 40.50121 | -0.08635 | 25107 ft | 338 kts | 201° |
| 2026-05-07 21:31 | 40.47874 | -0.09531 | 24653 ft | 337 kts | 200° |
| 2026-05-07 21:31 | 40.45640 | -0.10422 | 24191 ft | 335 kts | 200° |
| 2026-05-07 21:31 | 40.43412 | -0.11311 | 23728 ft | 333 kts | 199° |
| 2026-05-07 21:32 | 40.41199 | -0.12190 | 23260 ft | 332 kts | 199° |
| 2026-05-07 21:32 | 40.38991 | -0.13064 | 22810 ft | 331 kts | 199° |
| 2026-05-07 21:32 | 40.36795 | -0.13929 | 22358 ft | 329 kts | 199° |
| 2026-05-07 21:32 | 40.34608 | -0.14791 | 21919 ft | 327 kts | 199° |
| 2026-05-07 21:33 | 40.32433 | -0.15644 | 21470 ft | 326 kts | 199° |
| 2026-05-07 21:33 | 40.30265 | -0.16496 | 21041 ft | 325 kts | 198° |
| 2026-05-07 21:33 | 40.28104 | -0.17346 | 20606 ft | 324 kts | 198° |